createdAt,value
2023-03-23T15:57:57.261Z,100810.63
2023-03-23T16:00:26.334Z,100803.84
2023-03-23T16:02:59.413Z,100809.75
2023-03-23T16:05:26.697Z,100809.63
2023-03-23T16:07:58.143Z,100807.19
2023-03-23T16:10:25.670Z,100801.72
2023-03-23T16:12:53.573Z,100802.78
2023-03-23T16:15:21.420Z,100807.13
2023-03-23T16:17:49.319Z,100812.09
2023-03-23T16:20:40.572Z,100812.72
2023-03-23T16:23:08.674Z,100808.06
2023-03-23T16:25:37.889Z,100807.75
2023-03-23T16:28:06.908Z,100804.44
2023-03-23T16:30:36.202Z,100803.66
2023-03-23T16:33:04.020Z,100810.88
2023-03-23T16:35:31.661Z,100813.06
2023-03-23T16:38:07.374Z,100805.56
2023-03-23T16:40:37.844Z,100808.44
2023-03-23T16:43:08.890Z,100813.22
2023-03-23T16:45:43.185Z,100814.38
2023-03-23T16:48:12.374Z,100819.97
2023-03-23T16:50:40.721Z,100820.63
2023-03-23T16:53:11.466Z,100818.00
2023-03-23T16:55:39.656Z,100823.06
2023-03-23T17:00:38.825Z,100832.84
2023-03-23T17:03:07.043Z,100839.72
2023-03-23T17:05:35.522Z,100836.00
2023-03-23T17:08:03.252Z,100839.06
2023-03-23T17:10:30.866Z,100839.41
2023-03-23T17:12:58.455Z,100841.19
2023-03-23T17:15:25.845Z,100840.78
2023-03-23T17:17:54.955Z,100841.00
2023-03-23T17:20:23.239Z,100843.13
2023-03-23T17:22:51.950Z,100846.88
2023-03-23T17:25:20.229Z,100842.81
2023-03-23T17:27:48.348Z,100846.47
2023-03-23T17:30:16.805Z,100844.88
2023-03-23T17:32:44.713Z,100857.31
2023-03-23T17:35:12.806Z,100857.50
2023-03-23T17:37:40.568Z,100859.38
2023-03-23T17:40:11.226Z,100867.31
2023-03-23T17:42:38.733Z,100868.28
2023-03-23T17:45:07.440Z,100866.59
2023-03-23T17:47:35.212Z,100871.00
2023-03-23T17:50:12.372Z,100880.69
2023-03-23T17:52:41.689Z,100885.13
2023-03-23T17:55:09.948Z,100879.94
2023-03-23T17:57:38.587Z,100886.94
2023-03-23T18:00:09.384Z,100883.50
2023-03-23T18:02:37.140Z,100889.56
2023-03-23T18:05:09.379Z,100881.78
2023-03-23T18:07:37.586Z,100880.09
2023-03-23T18:10:12.783Z,100881.84
2023-03-23T18:12:41.959Z,100886.22
2023-03-23T18:15:10.829Z,100890.56
2023-03-23T18:17:38.982Z,100892.31
2023-03-23T18:20:07.779Z,100887.13
2023-03-23T18:22:35.558Z,100886.28
2023-03-23T18:25:05.580Z,100893.31
2023-03-23T18:27:34.562Z,100894.16
2023-03-23T18:30:03.085Z,100888.09
2023-03-23T18:32:31.259Z,100902.03
2023-03-23T18:35:00.235Z,100904.66
2023-03-23T18:37:28.582Z,100911.59
2023-03-23T18:39:56.638Z,100907.22
2023-03-23T18:42:25.552Z,100917.66
2023-03-23T18:45:00.000Z,100923.72
2023-03-23T18:47:28.276Z,100915.03
2023-03-23T18:49:56.399Z,100930.69
2023-03-23T18:52:26.551Z,100924.59
2023-03-23T18:54:53.763Z,100923.72
2023-03-23T18:57:23.234Z,100921.13
2023-03-23T18:59:50.453Z,100925.47
2023-03-23T19:02:24.432Z,100931.53
2023-03-23T19:04:52.109Z,100931.53
2023-03-23T19:07:20.068Z,100934.09
2023-03-23T19:09:48.160Z,100930.63
2023-03-23T19:12:16.131Z,100937.47
2023-03-23T19:14:43.943Z,100937.38
2023-03-23T19:17:11.590Z,100930.38
2023-03-23T19:19:43.197Z,100940.66
2023-03-23T19:22:12.144Z,100943.13
2023-03-23T19:24:40.299Z,100943.94
2023-03-23T19:27:09.417Z,100946.50
2023-03-23T19:29:37.545Z,100948.16
2023-03-23T19:32:06.517Z,100948.97
2023-03-23T19:34:34.279Z,100948.91
2023-03-23T19:37:05.968Z,100950.69
2023-03-23T19:39:38.578Z,100953.38
2023-03-23T19:42:07.907Z,100955.16
2023-03-23T19:44:36.133Z,100953.44
2023-03-23T19:47:04.145Z,100953.41
2023-03-23T19:49:32.779Z,100961.19
2023-03-23T19:52:09.209Z,100959.44
2023-03-23T19:54:38.543Z,100961.91
2023-03-23T19:57:06.861Z,100973.97
2023-03-23T19:59:35.063Z,100968.72
2023-03-23T20:02:03.746Z,100976.50
2023-03-23T20:04:31.776Z,100973.00
2023-03-23T20:07:02.767Z,100975.56
2023-03-23T20:09:32.076Z,100980.72
2023-03-23T20:11:59.724Z,100982.44
2023-03-23T20:14:27.734Z,100980.66
2023-03-23T20:16:56.026Z,100981.50
2023-03-23T20:19:24.193Z,100989.28
2023-03-23T20:21:52.430Z,100990.88
2023-03-23T20:24:20.138Z,100985.59
2023-03-23T20:26:48.165Z,100993.34
2023-03-23T20:29:15.769Z,100999.41
2023-03-23T20:31:44.063Z,101000.09
2023-03-23T20:34:13.143Z,100999.06
2023-03-23T20:36:42.535Z,100999.56
2023-03-23T20:39:23.235Z,100997.63
2023-03-23T20:41:51.580Z,101001.88
2023-03-23T20:44:23.111Z,101003.56
2023-03-23T20:46:51.100Z,101001.78
2023-03-23T20:49:19.805Z,101001.63
2023-03-23T20:51:48.103Z,101005.09
2023-03-23T20:54:15.865Z,101014.63
2023-03-23T20:56:47.673Z,101009.50
2023-03-23T20:59:15.573Z,101022.50
2023-03-23T21:01:43.799Z,101012.19
2023-03-23T21:04:15.362Z,101018.25
2023-03-23T21:06:43.701Z,101013.13
2023-03-23T21:09:11.487Z,101017.47
2023-03-23T21:11:40.450Z,101023.56
2023-03-23T21:14:08.157Z,101027.03
2023-03-23T21:16:35.653Z,101025.28
2023-03-23T21:19:04.081Z,101023.56
2023-03-23T21:21:32.608Z,101022.75
2023-03-23T21:24:00.654Z,101025.34
2023-03-23T21:26:29.934Z,101017.47
2023-03-23T21:29:00.331Z,101022.56
2023-03-23T21:31:33.464Z,101021.59
2023-03-23T21:34:01.560Z,101022.34
2023-03-23T21:36:29.816Z,101017.16
2023-03-23T21:38:58.054Z,101013.72
2023-03-23T21:41:25.919Z,101018.09
2023-03-23T21:43:54.088Z,101017.25
2023-03-23T21:46:21.399Z,101010.28
2023-03-23T21:48:52.896Z,101012.78
2023-03-23T21:51:25.405Z,101011.84
2023-03-23T21:53:54.677Z,101006.75
2023-03-23T21:56:24.611Z,101003.28
2023-03-23T21:58:52.519Z,100994.63
2023-03-23T22:01:20.630Z,100996.34
2023-03-23T22:03:48.633Z,100994.63
2023-03-23T22:06:18.353Z,100998.06
2023-03-23T22:08:46.197Z,100994.63
2023-03-23T22:11:15.569Z,100992.88
2023-03-23T22:13:43.362Z,100990.09
2023-03-23T22:16:14.756Z,100985.22
2023-03-23T22:18:46.443Z,100981.31
2023-03-23T22:21:14.193Z,100979.31
2023-03-23T22:23:40.942Z,100980.06
2023-03-23T22:26:08.720Z,100984.28
2023-03-23T22:28:39.399Z,101003.19
2023-03-23T22:31:08.776Z,101005.84
2023-03-23T22:33:37.137Z,101031.63
2023-03-23T22:36:06.863Z,101031.69
2023-03-23T22:38:41.747Z,101026.97
2023-03-23T22:41:10.967Z,101018.34
2023-03-23T22:43:39.275Z,101016.66
2023-03-23T22:46:09.063Z,101016.94
2023-03-23T22:48:37.574Z,101015.28
2023-03-23T22:51:04.662Z,101021.97
2023-03-23T22:53:35.831Z,101006.47
2023-03-23T22:56:02.662Z,101004.88
2023-03-23T22:58:30.444Z,101005.94
2023-03-23T23:01:08.353Z,101004.19
2023-03-23T23:03:36.990Z,101003.31
2023-03-23T23:06:05.581Z,101001.72
2023-03-23T23:08:33.354Z,100999.38
2023-03-23T23:11:01.665Z,101002.22
2023-03-23T23:13:30.627Z,100996.22
2023-03-23T23:16:00.129Z,101000.53
2023-03-23T23:18:28.270Z,100998.09
2023-03-23T23:20:58.963Z,100993.97
2023-03-23T23:23:29.924Z,100994.06
2023-03-23T23:25:57.837Z,100999.34
2023-03-23T23:28:25.442Z,100989.91
2023-03-23T23:30:53.326Z,100988.94
2023-03-23T23:33:21.127Z,100987.97
2023-03-23T23:35:49.629Z,100991.38
2023-03-23T23:38:17.836Z,100985.38
2023-03-23T23:40:46.597Z,100978.34
2023-03-23T23:43:15.060Z,100966.00
2023-03-23T23:45:43.389Z,100978.06
2023-03-23T23:48:11.480Z,100984.50
2023-03-23T23:50:39.137Z,100983.09
2023-03-23T23:53:07.323Z,100985.59
2023-03-23T23:55:35.179Z,100984.81
2023-03-23T23:58:03.284Z,100978.81
